createdAt,value
2023-05-12T00:04:36.017Z,6.80
2023-05-12T00:07:06.280Z,6.30
2023-05-12T00:09:35.541Z,6.70
2023-05-12T00:12:04.633Z,5.90
2023-05-12T00:14:32.933Z,6.80
2023-05-12T00:19:28.799Z,5.80
2023-05-12T00:24:25.563Z,6.10
2023-05-12T00:26:54.626Z,6.40
2023-05-12T00:29:22.963Z,6.60
2023-05-12T00:31:51.444Z,6.80
2023-05-12T00:34:19.786Z,6.50
2023-05-12T00:39:15.775Z,5.20
2023-05-12T00:41:44.324Z,6.20
2023-05-12T00:44:12.688Z,6.90
2023-05-12T00:49:08.483Z,5.10
2023-05-12T00:54:04.516Z,5.80
2023-05-12T00:56:34.802Z,6.40
2023-05-12T00:59:04.249Z,5.20
2023-05-12T01:01:33.306Z,7.00
2023-05-12T01:04:02.855Z,5.90
2023-05-12T01:06:35.801Z,6.00
2023-05-12T01:09:04.507Z,6.20
2023-05-12T01:11:32.899Z,6.60
2023-05-12T01:14:01.489Z,6.40
2023-05-12T01:16:35.989Z,5.60
2023-05-12T01:19:06.943Z,6.30
2023-05-12T01:21:36.620Z,6.30
2023-05-12T01:24:08.466Z,6.00
2023-05-12T01:26:37.675Z,5.50
2023-05-12T01:29:06.996Z,6.20
2023-05-12T01:31:35.470Z,6.00
2023-05-12T01:34:03.965Z,6.60
2023-05-12T01:36:33.128Z,5.90
2023-05-12T01:39:01.715Z,5.50
2023-05-12T01:41:30.424Z,6.70
2023-05-12T01:43:58.932Z,5.20
2023-05-12T01:46:27.868Z,6.00
2023-05-12T01:48:59.623Z,6.20
2023-05-12T01:51:28.331Z,6.70
2023-05-12T01:53:57.760Z,5.90
2023-05-12T01:56:28.346Z,5.40
2023-05-12T01:58:57.501Z,6.00
2023-05-12T02:01:28.126Z,5.70
2023-05-12T02:03:57.635Z,5.50
2023-05-12T02:06:27.815Z,5.50
2023-05-12T02:08:57.149Z,5.80
2023-05-12T02:11:25.697Z,5.40
2023-05-12T02:13:53.952Z,5.90
2023-05-12T02:18:50.572Z,5.50
2023-05-12T02:21:19.256Z,5.60
2023-05-12T02:23:47.605Z,5.50
2023-05-12T02:28:43.543Z,5.30
2023-05-12T02:31:12.103Z,5.50
2023-05-12T02:33:41.184Z,6.60
2023-05-12T02:36:10.140Z,4.60
2023-05-12T02:38:39.622Z,6.10
2023-05-12T02:41:07.976Z,6.00
2023-05-12T02:46:04.126Z,6.30
2023-05-12T02:48:33.182Z,5.60
2023-05-12T02:53:29.450Z,5.70
2023-05-12T02:55:57.735Z,6.00
2023-05-12T02:58:25.989Z,5.90
2023-05-12T03:01:06.671Z,6.00
2023-05-12T03:03:39.189Z,6.80
2023-05-12T03:06:08.808Z,6.40
2023-05-12T03:08:37.087Z,7.50
2023-05-12T03:13:33.756Z,6.90
2023-05-12T03:16:02.393Z,7.10
2023-05-12T03:18:31.350Z,5.70
2023-05-12T03:20:59.665Z,5.50
2023-05-12T03:23:29.431Z,6.50
2023-05-12T03:25:58.230Z,6.10
2023-05-12T03:28:26.636Z,5.90
2023-05-12T03:30:55.105Z,6.60
2023-05-12T03:33:24.630Z,6.10
2023-05-12T03:35:54.199Z,6.40
2023-05-12T03:38:22.488Z,5.00
2023-05-12T03:40:52.075Z,5.70
2023-05-12T03:43:20.593Z,6.00
2023-05-12T03:45:49.089Z,6.20
2023-05-12T03:48:17.381Z,6.60
2023-05-12T03:53:13.270Z,5.00
2023-05-12T03:58:09.232Z,5.50
2023-05-12T04:03:05.073Z,5.40
2023-05-12T04:05:37.192Z,4.80
2023-05-12T04:08:05.879Z,5.50
2023-05-12T04:10:34.201Z,5.60
2023-05-12T04:15:31.581Z,5.80
2023-05-12T04:20:27.367Z,5.40
2023-05-12T04:25:23.391Z,5.20
2023-05-12T04:30:19.471Z,4.60
2023-05-12T04:32:48.262Z,5.70
2023-05-12T04:35:17.797Z,4.50
2023-05-12T04:37:46.759Z,5.20
2023-05-12T04:40:15.568Z,5.50
2023-05-12T04:42:43.885Z,5.50
2023-05-12T04:45:13.040Z,6.10
2023-05-12T04:47:41.530Z,5.30
2023-05-12T04:50:11.330Z,5.30
2023-05-12T04:52:39.878Z,5.60
2023-05-12T04:55:09.666Z,5.40
2023-05-12T04:57:40.546Z,5.40
2023-05-12T05:00:12.441Z,5.60
2023-05-12T05:02:41.374Z,5.10
2023-05-12T05:05:11.205Z,4.80
2023-05-12T05:07:39.541Z,5.80
2023-05-12T05:10:10.029Z,5.40
2023-05-12T05:12:39.449Z,6.00
2023-05-12T05:15:10.965Z,4.40
2023-05-12T05:17:39.700Z,5.50
2023-05-12T05:20:12.290Z,5.50
2023-05-12T05:22:43.394Z,5.40
2023-05-12T05:25:12.908Z,4.80
2023-05-12T05:27:41.164Z,5.50
2023-05-12T05:30:11.200Z,5.50
2023-05-12T05:32:41.023Z,5.50
2023-05-12T05:35:10.244Z,4.90
2023-05-12T05:37:43.045Z,5.30
2023-05-12T05:40:12.459Z,5.30
2023-05-12T05:42:40.968Z,5.50
2023-05-12T05:45:11.356Z,5.90
2023-05-12T05:47:40.451Z,6.10
2023-05-12T05:50:10.825Z,9.00
2023-05-12T05:52:41.186Z,6.50
2023-05-12T05:55:10.326Z,7.00
2023-05-12T05:57:38.765Z,7.90
2023-05-12T06:00:09.708Z,7.70
2023-05-12T06:02:46.694Z,6.00
2023-05-12T06:05:19.604Z,5.70
2023-05-12T06:07:48.156Z,5.00
2023-05-12T06:10:16.585Z,8.00
2023-05-12T06:12:45.337Z,5.70
2023-05-12T06:15:13.698Z,7.40
2023-05-12T06:17:41.981Z,5.70
2023-05-12T06:20:12.698Z,5.10
2023-05-12T06:22:43.716Z,7.30
2023-05-12T06:25:12.538Z,5.60
2023-05-12T06:27:40.813Z,5.60
2023-05-12T06:30:12.530Z,4.70
2023-05-12T06:32:42.401Z,4.90
2023-05-12T06:35:11.071Z,5.30
2023-05-12T06:37:39.365Z,5.40
2023-05-12T06:40:09.734Z,6.20
2023-05-12T06:42:38.106Z,4.90
2023-05-12T06:45:12.251Z,4.80
2023-05-12T06:47:40.560Z,4.40
2023-05-12T06:50:09.843Z,4.20
2023-05-12T06:52:38.258Z,4.60
2023-05-12T06:55:08.274Z,4.80
2023-05-12T06:57:36.741Z,5.20
2023-05-12T07:00:06.947Z,4.50
2023-05-12T07:02:35.270Z,4.70
2023-05-12T07:05:03.928Z,4.70
2023-05-12T07:07:32.215Z,4.30
2023-05-12T07:10:00.531Z,5.30
2023-05-12T07:12:28.832Z,4.60
2023-05-12T07:14:57.144Z,3.90
2023-05-12T07:17:25.621Z,4.20
2023-05-12T07:19:53.982Z,4.40
2023-05-12T07:22:22.879Z,4.90
2023-05-12T07:24:51.410Z,4.00
2023-05-12T07:27:19.794Z,3.60
2023-05-12T07:29:48.157Z,4.20
2023-05-12T07:32:16.578Z,4.10
2023-05-12T07:34:45.505Z,4.30
2023-05-12T07:37:13.875Z,3.90
2023-05-12T07:39:42.275Z,4.20
2023-05-12T07:42:10.720Z,3.80
2023-05-12T07:44:39.209Z,3.90
2023-05-12T07:47:07.715Z,3.90
2023-05-12T07:49:36.059Z,4.10
2023-05-12T07:52:05.049Z,3.80
2023-05-12T07:54:33.487Z,5.90
2023-05-12T07:57:01.748Z,4.50
2023-05-12T07:59:30.200Z,3.30
2023-05-12T08:01:58.588Z,3.60
2023-05-12T08:04:26.963Z,3.80
2023-05-12T08:06:55.345Z,3.90
2023-05-12T08:09:23.671Z,3.70
2023-05-12T08:11:52.090Z,3.70
2023-05-12T08:14:21.751Z,4.10
2023-05-12T08:16:50.231Z,3.80
2023-05-12T08:19:18.591Z,4.30
2023-05-12T08:21:47.079Z,4.60
2023-05-12T08:24:15.373Z,3.90
2023-05-12T08:26:43.640Z,3.70
2023-05-12T08:29:12.294Z,3.80
2023-05-12T08:31:40.728Z,4.60
2023-05-12T08:34:11.093Z,4.30
2023-05-12T08:36:39.935Z,4.20
2023-05-12T08:39:09.718Z,4.90
2023-05-12T08:41:43.879Z,3.40
2023-05-12T08:44:12.591Z,5.10
2023-05-12T08:46:41.682Z,4.30
2023-05-12T08:49:14.940Z,4.50
2023-05-12T08:51:46.648Z,4.20
2023-05-12T08:54:19.754Z,4.30
2023-05-12T08:59:20.564Z,3.20
2023-05-12T09:01:50.285Z,3.90
2023-05-12T09:04:19.337Z,4.30
2023-05-12T09:06:48.238Z,4.20
2023-05-12T09:09:17.406Z,4.80
2023-05-12T09:11:45.821Z,3.90
2023-05-12T09:14:18.735Z,3.70
2023-05-12T09:16:49.025Z,3.80
2023-05-12T09:19:20.681Z,3.80
2023-05-12T09:21:48.995Z,3.60
2023-05-12T09:24:17.458Z,3.80
2023-05-12T09:26:47.254Z,4.00
2023-05-12T09:29:24.043Z,3.70
2023-05-12T09:32:01.355Z,3.30
2023-05-12T09:34:31.146Z,3.90
2023-05-12T09:37:01.359Z,4.00
2023-05-12T09:39:29.808Z,3.80
2023-05-12T09:41:58.098Z,4.10
2023-05-12T09:44:28.337Z,4.20
2023-05-12T09:46:56.699Z,4.00
2023-05-12T09:49:26.209Z,3.70
2023-05-12T09:51:57.771Z,3.40
2023-05-12T09:54:27.617Z,3.70
2023-05-12T09:56:58.828Z,3.90
2023-05-12T09:59:30.117Z,4.00
2023-05-12T10:02:00.269Z,3.40
2023-05-12T10:04:30.055Z,3.60
2023-05-12T10:06:59.046Z,3.70
2023-05-12T10:09:33.288Z,3.60
2023-05-12T10:12:03.661Z,3.50
2023-05-12T10:14:32.074Z,3.80
2023-05-12T10:17:00.876Z,4.10
2023-05-12T10:19:30.772Z,3.90
2023-05-12T10:21:59.076Z,3.10
2023-05-12T10:24:27.856Z,3.80
2023-05-12T10:26:57.002Z,3.40
2023-05-12T10:29:29.093Z,3.40
2023-05-12T10:31:57.787Z,3.20
2023-05-12T10:34:32.596Z,3.50
2023-05-12T10:37:02.869Z,2.60
2023-05-12T10:39:32.182Z,3.70
2023-05-12T10:42:06.410Z,4.10
2023-05-12T10:44:35.184Z,3.40
2023-05-12T10:47:13.449Z,3.30
2023-05-12T10:49:42.420Z,3.70
2023-05-12T10:52:12.541Z,3.90
2023-05-12T10:54:43.893Z,2.90
2023-05-12T10:57:18.536Z,3.60
2023-05-12T10:59:51.600Z,3.90
2023-05-12T11:02:25.033Z,3.40
2023-05-12T11:04:57.924Z,3.30
2023-05-12T11:07:29.355Z,3.60
2023-05-12T11:10:01.636Z,3.60
2023-05-12T11:12:32.534Z,3.20
2023-05-12T11:15:02.632Z,3.00
2023-05-12T11:17:31.254Z,3.90
2023-05-12T11:20:00.338Z,3.60
2023-05-12T11:22:28.673Z,3.90
2023-05-12T11:24:57.059Z,3.60
2023-05-12T11:27:25.395Z,3.20
2023-05-12T11:29:58.125Z,2.90
2023-05-12T11:32:26.742Z,4.20
2023-05-12T11:34:55.268Z,3.20
2023-05-12T11:37:23.648Z,3.50
2023-05-12T11:39:52.419Z,3.80
2023-05-12T11:42:22.779Z,3.30
2023-05-12T11:44:54.621Z,2.90
2023-05-12T11:47:23.161Z,3.20
2023-05-12T11:49:52.648Z,3.70
2023-05-12T11:52:22.132Z,3.20
2023-05-12T11:54:51.242Z,3.40
2023-05-12T11:57:27.133Z,3.10
2023-05-12T11:59:59.527Z,3.30
2023-05-12T12:02:28.497Z,3.40
2023-05-12T12:04:57.563Z,3.50
2023-05-12T12:07:33.146Z,3.30
2023-05-12T12:10:12.666Z,3.00
2023-05-12T12:12:41.032Z,3.30
2023-05-12T12:15:11.547Z,3.30
2023-05-12T12:17:40.502Z,2.90
2023-05-12T12:20:10.668Z,3.80
2023-05-12T12:22:39.081Z,3.50
2023-05-12T12:25:09.337Z,3.50
2023-05-12T12:27:37.734Z,4.20
2023-05-12T12:30:08.338Z,3.60
2023-05-12T12:32:36.864Z,3.10
2023-05-12T12:35:06.788Z,3.60
2023-05-12T12:37:35.054Z,3.10
2023-05-12T12:40:07.472Z,3.10
2023-05-12T12:42:37.083Z,2.70
2023-05-12T12:45:08.144Z,3.40
2023-05-12T12:47:37.301Z,3.10
2023-05-12T12:50:09.279Z,3.50
2023-05-12T12:52:37.906Z,3.10
2023-05-12T12:55:09.231Z,3.00
2023-05-12T12:57:38.163Z,3.50
2023-05-12T13:00:09.532Z,3.20
2023-05-12T13:02:38.833Z,2.60
2023-05-12T13:05:09.080Z,3.30
2023-05-12T13:07:37.467Z,3.10
2023-05-12T13:10:07.486Z,2.80
2023-05-12T13:12:36.146Z,3.30
2023-05-12T13:15:06.582Z,4.00
2023-05-12T13:17:35.012Z,3.40
2023-05-12T13:20:04.071Z,3.00
2023-05-12T13:22:32.537Z,2.80
2023-05-12T13:25:00.995Z,3.50
2023-05-12T13:27:29.413Z,3.00
2023-05-12T13:29:57.873Z,3.00
2023-05-12T13:32:26.282Z,3.80
2023-05-12T13:34:54.691Z,3.20
2023-05-12T13:37:23.386Z,3.50
2023-05-12T13:39:51.713Z,3.00
2023-05-12T13:42:21.068Z,3.20
2023-05-12T13:44:49.864Z,2.70
2023-05-12T13:47:18.440Z,3.60
2023-05-12T13:49:46.931Z,3.10
2023-05-12T13:52:15.433Z,3.90
2023-05-12T13:54:43.818Z,3.30
2023-05-12T13:57:12.171Z,3.00
2023-05-12T13:59:40.685Z,3.00
2023-05-12T14:02:11.352Z,2.90
2023-05-12T14:04:40.132Z,3.00
2023-05-12T14:07:08.881Z,3.50
2023-05-12T14:09:37.327Z,3.30
2023-05-12T14:12:07.428Z,3.10
2023-05-12T14:14:35.917Z,2.80
2023-05-12T14:17:04.642Z,3.10
2023-05-12T14:19:34.974Z,3.80
2023-05-12T14:22:09.958Z,3.40
2023-05-12T14:24:47.139Z,3.30
2023-05-12T14:27:15.413Z,3.40
2023-05-12T14:29:43.840Z,3.00
2023-05-12T14:32:12.618Z,2.40
2023-05-12T14:34:40.925Z,3.10
2023-05-12T14:37:09.275Z,2.90
2023-05-12T14:39:37.617Z,3.20
2023-05-12T14:42:06.716Z,3.30
2023-05-12T14:44:35.469Z,3.20
2023-05-12T14:47:05.222Z,3.00
2023-05-12T14:49:34.228Z,3.20
2023-05-12T14:52:03.052Z,2.90
2023-05-12T14:54:32.810Z,3.10
2023-05-12T14:57:01.226Z,3.30
2023-05-12T14:59:30.259Z,3.00
2023-05-12T15:01:58.613Z,2.90
2023-05-12T15:04:27.299Z,2.80
2023-05-12T15:06:55.912Z,2.80
2023-05-12T15:09:24.183Z,2.60
2023-05-12T15:11:52.485Z,3.40
2023-05-12T15:14:20.762Z,2.60
2023-05-12T15:16:49.163Z,2.80
2023-05-12T15:19:19.865Z,2.30
2023-05-12T15:21:48.328Z,2.90
2023-05-12T15:24:16.636Z,2.70
2023-05-12T15:26:45.238Z,2.80
2023-05-12T15:29:14.047Z,2.90
2023-05-12T15:31:42.447Z,2.90
2023-05-12T15:34:10.961Z,3.00
2023-05-12T15:36:39.402Z,2.60
2023-05-12T15:39:08.043Z,3.10
2023-05-12T15:41:36.315Z,3.00
2023-05-12T15:44:05.611Z,2.70
2023-05-12T15:46:35.025Z,2.90
2023-05-12T15:49:03.389Z,2.70
2023-05-12T15:51:33.230Z,2.70
2023-05-12T15:54:02.180Z,2.60
2023-05-12T15:56:31.799Z,2.80
2023-05-12T15:59:00.542Z,2.80
2023-05-12T16:01:28.920Z,3.00
2023-05-12T16:03:57.808Z,2.40
2023-05-12T16:06:26.597Z,3.00
2023-05-12T16:08:55.548Z,3.00
2023-05-12T16:11:23.896Z,3.10
2023-05-12T16:13:52.726Z,3.50
2023-05-12T16:16:21.892Z,2.40
2023-05-12T16:18:52.299Z,3.20
2023-05-12T16:21:21.085Z,3.30
2023-05-12T16:23:49.437Z,3.00
2023-05-12T16:26:18.904Z,3.10
2023-05-12T16:28:47.323Z,2.60
2023-05-12T16:31:18.077Z,2.80
2023-05-12T16:33:46.616Z,2.90
2023-05-12T16:36:16.122Z,2.60
2023-05-12T16:38:45.470Z,2.30
2023-05-12T16:41:14.343Z,2.60
2023-05-12T16:43:42.636Z,3.20
2023-05-12T16:46:10.986Z,2.60
2023-05-12T16:48:39.409Z,3.30
2023-05-12T16:51:09.472Z,2.80
2023-05-12T16:53:38.310Z,2.60
2023-05-12T16:56:07.685Z,2.60
2023-05-12T16:58:36.079Z,2.50
2023-05-12T17:01:04.769Z,2.60
2023-05-12T17:03:33.274Z,2.50
2023-05-12T17:06:01.753Z,3.50
2023-05-12T17:08:30.491Z,2.60
2023-05-12T17:10:58.975Z,2.80
2023-05-12T17:13:27.395Z,2.80
2023-05-12T17:15:55.932Z,2.60
2023-05-12T17:18:25.240Z,2.80
2023-05-12T17:20:53.562Z,2.50
2023-05-12T17:23:21.855Z,2.80
2023-05-12T17:25:50.237Z,3.10
2023-05-12T17:28:18.682Z,2.90
2023-05-12T17:30:47.027Z,2.50
2023-05-12T17:33:15.392Z,2.90
2023-05-12T17:35:47.082Z,2.90
2023-05-12T17:38:20.224Z,2.70
2023-05-12T17:40:48.531Z,2.50
2023-05-12T17:43:17.144Z,2.90
2023-05-12T17:45:45.475Z,2.80
2023-05-12T17:48:13.887Z,2.90
2023-05-12T17:50:42.278Z,3.40
2023-05-12T17:53:10.846Z,2.70
2023-05-12T17:55:39.220Z,3.20
2023-05-12T17:58:08.025Z,2.90
2023-05-12T18:00:36.612Z,2.70
2023-05-12T18:03:05.341Z,2.90
2023-05-12T18:05:34.854Z,2.60
2023-05-12T18:08:04.063Z,3.00
2023-05-12T18:10:32.515Z,2.70
2023-05-12T18:13:00.810Z,3.10
2023-05-12T18:15:29.497Z,3.40
2023-05-12T18:17:58.019Z,3.30
2023-05-12T18:20:26.791Z,3.50
2023-05-12T18:22:55.165Z,2.80
2023-05-12T18:25:23.814Z,3.60
2023-05-12T18:27:52.251Z,3.40
2023-05-12T18:30:20.789Z,3.30
2023-05-12T18:32:49.738Z,3.50
2023-05-12T18:35:18.127Z,5.70
2023-05-12T18:37:46.586Z,4.80
2023-05-12T18:40:15.108Z,4.40
2023-05-12T18:42:43.730Z,5.10
2023-05-12T18:45:12.589Z,3.90
2023-05-12T18:47:41.119Z,3.60
2023-05-12T18:50:10.729Z,3.80
2023-05-12T18:52:39.079Z,4.00
2023-05-12T18:55:08.904Z,3.70
2023-05-12T18:57:37.174Z,3.70
2023-05-12T19:00:09.158Z,4.20
2023-05-12T19:02:37.674Z,3.70
2023-05-12T19:05:07.473Z,3.80
2023-05-12T19:07:35.870Z,4.10
2023-05-12T19:10:05.242Z,4.60
2023-05-12T19:12:33.482Z,4.90
2023-05-12T19:15:04.246Z,3.70
2023-05-12T19:17:32.837Z,4.20
2023-05-12T19:20:01.617Z,4.40
2023-05-12T19:22:30.346Z,4.10
2023-05-12T19:25:00.207Z,3.90
2023-05-12T19:27:28.650Z,5.10
2023-05-12T19:29:57.193Z,5.50
2023-05-12T19:32:25.594Z,4.80
2023-05-12T19:34:55.300Z,4.50
2023-05-12T19:37:23.824Z,5.60
2023-05-12T19:39:53.076Z,5.00
2023-05-12T19:42:21.420Z,6.90
2023-05-12T19:44:49.785Z,6.40
2023-05-12T19:47:18.402Z,6.60
2023-05-12T19:49:46.803Z,6.70
2023-05-12T19:52:15.293Z,7.40
2023-05-12T19:54:43.710Z,8.00
2023-05-12T19:57:12.106Z,8.80
2023-05-12T19:59:40.418Z,7.90
2023-05-12T20:02:09.562Z,7.70
2023-05-12T20:04:38.241Z,7.90
2023-05-12T20:07:08.219Z,8.80
2023-05-12T20:09:36.781Z,7.10
2023-05-12T20:14:37.688Z,7.80
2023-05-12T20:17:06.942Z,7.80
2023-05-12T20:19:35.492Z,7.30
2023-05-12T20:22:04.025Z,7.90
2023-05-12T20:24:32.257Z,7.90
2023-05-12T20:27:00.573Z,7.30
2023-05-12T20:31:57.915Z,8.60
2023-05-12T20:34:26.141Z,7.90
2023-05-12T20:36:54.566Z,7.80
2023-05-12T20:39:22.891Z,7.90
2023-05-12T20:41:51.177Z,7.30
2023-05-12T20:46:47.991Z,6.50
2023-05-12T20:49:16.483Z,7.70
2023-05-12T20:51:44.824Z,6.90
2023-05-12T20:56:40.422Z,7.80
2023-05-12T21:01:36.178Z,7.20
2023-05-12T21:04:05.095Z,7.80
2023-05-12T21:06:35.190Z,8.60
2023-05-12T21:09:04.331Z,8.40
2023-05-12T21:11:32.977Z,7.90
2023-05-12T21:14:01.279Z,7.10
2023-05-12T21:18:57.393Z,7.10
2023-05-12T21:21:26.175Z,8.20
2023-05-12T21:26:21.839Z,7.30
2023-05-12T21:28:50.393Z,7.30
2023-05-12T21:31:18.814Z,7.80
2023-05-12T21:36:15.364Z,7.90
2023-05-12T21:41:11.076Z,8.00
2023-05-12T21:46:06.928Z,7.90
2023-05-12T21:48:35.394Z,7.60
2023-05-12T21:51:04.318Z,7.90
2023-05-12T21:53:32.569Z,8.10
2023-05-12T21:56:00.891Z,6.40
2023-05-12T22:00:57.588Z,8.30
2023-05-12T22:03:26.543Z,7.80
2023-05-12T22:05:56.123Z,8.60
2023-05-12T22:08:24.618Z,8.20
2023-05-12T22:13:20.427Z,7.40
2023-05-12T22:18:16.444Z,8.20
2023-05-12T22:20:45.075Z,7.00
2023-05-12T22:23:13.601Z,7.60
2023-05-12T22:25:42.014Z,8.30
2023-05-12T22:30:38.759Z,8.90
2023-05-12T22:33:07.560Z,7.90
2023-05-12T22:38:03.411Z,7.50
2023-05-12T22:43:00.506Z,8.40
2023-05-12T22:47:56.389Z,9.30
2023-05-12T22:52:56.419Z,7.00
2023-05-12T22:55:26.674Z,7.20
2023-05-12T22:57:55.503Z,7.20
2023-05-12T23:00:24.210Z,8.10
2023-05-12T23:02:52.774Z,7.80
2023-05-12T23:05:21.546Z,7.80
2023-05-12T23:07:49.948Z,7.50
2023-05-12T23:10:18.789Z,8.60
2023-05-12T23:12:47.389Z,8.20
2023-05-12T23:15:16.012Z,8.50
2023-05-12T23:17:44.708Z,7.40
2023-05-12T23:20:13.658Z,8.20
2023-05-12T23:22:42.165Z,8.20
2023-05-12T23:25:10.777Z,7.50
2023-05-12T23:27:39.365Z,7.60
2023-05-12T23:30:09.371Z,7.80
2023-05-12T23:32:38.186Z,7.90
2023-05-12T23:35:09.236Z,8.60
2023-05-12T23:37:37.840Z,8.30
2023-05-12T23:40:09.732Z,7.50
2023-05-12T23:42:39.563Z,7.20
2023-05-12T23:45:10.142Z,7.60
2023-05-12T23:47:38.702Z,8.50
2023-05-12T23:50:09.263Z,8.00
2023-05-12T23:52:38.123Z,7.00
2023-05-12T23:55:08.592Z,7.50
2023-05-12T23:57:37.256Z,9.20
